CJT5 weather

Melita Airport
Melita, Manitoba, Canada

Public forecast

Using degrees Celsius for public forecast. Weather courtesy of forecast.io.

Closest aviation weather report (METAR) to Melita Airport

Closest report is Minot Air Force Base, 52.6 nm (97.4 km) SSW. Retrieved 2019/10/20 03:56 UTC (41 minutes ago):

KMIB 200356Z AUTO 25006KT 10SM CLR 04/01 A2959 RMK AO2 SLP034 T00350007

Closest aviation forecast (TAF) to Melita Airport

Forecast is more than 12 hours old.

Closest forecast is Minot Air Force Base, 52.6 nm (97.4 km) SSW. Retrieved 2019/10/18 17:58 UTC (1 day ago):

TAF KMIB 181700Z 1817/1923 30012G18KT 9999 SCT100 BKN200 QNH2939INS BECMG 1901/1902 26009KT 9999 SCT080 WS014/29032KT QNH2975INS BECMG 1914/1915 26015G25KT 9999 BKN025 QNH2982INS TX13/1822Z TNM01/1912Z